sensor_id;sensor_type;location;lat;lon;timestamp;pressure;altitude;pressure_sealevel;temperature;humidity
54236;BME280;40151;43.606;1.472;2022-07-23T13:07:56;99772.50;;;30.28;39.99
54236;BME280;40151;43.606;1.472;2022-07-23T13:10:21;99764.44;;;30.28;39.86
54236;BME280;40151;43.606;1.472;2022-07-23T13:12:47;99760.78;;;30.30;39.86
54236;BME280;40151;43.606;1.472;2022-07-23T13:15:13;99760.47;;;30.33;39.93
54236;BME280;40151;43.606;1.472;2022-07-23T13:17:40;99763.88;;;30.35;39.60
54236;BME280;40151;43.606;1.472;2022-07-23T13:20:08;99760.31;;;30.34;39.74
54236;BME280;40151;43.606;1.472;2022-07-23T13:22:34;99758.19;;;30.38;39.44
54236;BME280;40151;43.606;1.472;2022-07-23T13:25:01;99753.66;;;30.38;39.52
54236;BME280;40151;43.606;1.472;2022-07-23T13:27:28;99760.72;;;30.39;39.61
54236;BME280;40151;43.606;1.472;2022-07-23T13:29:53;99744.44;;;30.41;39.36
54236;BME280;40151;43.606;1.472;2022-07-23T13:32:19;99741.75;;;30.41;39.22
54236;BME280;40151;43.606;1.472;2022-07-23T13:34:44;99743.44;;;30.42;39.17
54236;BME280;40151;43.606;1.472;2022-07-23T13:37:11;99740.59;;;30.44;39.29
54236;BME280;40151;43.606;1.472;2022-07-23T13:39:38;99741.44;;;30.44;39.42
54236;BME280;40151;43.606;1.472;2022-07-23T13:42:04;99743.13;;;30.45;39.10
54236;BME280;40151;43.606;1.472;2022-07-23T13:44:29;99741.16;;;30.47;39.16
54236;BME280;40151;43.606;1.472;2022-07-23T13:46:55;99737.44;;;30.48;39.26
54236;BME280;40151;43.606;1.472;2022-07-23T13:49:21;99729.38;;;30.48;39.27
54236;BME280;40151;43.606;1.472;2022-07-23T13:51:47;99728.38;;;30.49;39.44
54236;BME280;40151;43.606;1.472;2022-07-23T13:54:15;99726.38;;;30.51;39.17
54236;BME280;40151;43.606;1.472;2022-07-23T13:56:43;99726.38;;;30.51;39.00
54236;BME280;40151;43.606;1.472;2022-07-23T13:59:16;99715.44;;;30.53;38.83
54236;BME280;40151;43.606;1.472;2022-07-23T14:01:46;99716.31;;;30.53;38.87
54236;BME280;40151;43.606;1.472;2022-07-23T14:04:21;99709.91;;;30.54;38.95
54236;BME280;40151;43.606;1.472;2022-07-23T14:06:51;99709.91;;;30.54;38.89
54236;BME280;40151;43.606;1.472;2022-07-23T14:09:21;99710.59;;;30.57;38.83
54236;BME280;40151;43.606;1.472;2022-07-23T14:11:56;99697.16;;;30.57;38.74
54236;BME280;40151;43.606;1.472;2022-07-23T14:14:40;99699.84;;;30.57;38.60
54236;BME280;40151;43.606;1.472;2022-07-23T14:17:24;99696.84;;;30.60;38.69
54236;BME280;40151;43.606;1.472;2022-07-23T14:23:33;99683.25;;;30.61;38.55
54236;BME280;40151;43.606;1.472;2022-07-23T14:25:59;99684.06;;;30.62;38.29
54236;BME280;40151;43.606;1.472;2022-07-23T14:28:24;99679.56;;;30.62;38.32
54236;BME280;40151;43.606;1.472;2022-07-23T14:30:50;99680.38;;;30.63;38.54
54236;BME280;40151;43.606;1.472;2022-07-23T14:33:16;99670.47;;;30.63;38.35
54236;BME280;40151;43.606;1.472;2022-07-23T14:35:42;99671.28;;;30.64;38.43
54236;BME280;40151;43.606;1.472;2022-07-23T14:38:08;99668.47;;;30.65;38.20
54236;BME280;40151;43.606;1.472;2022-07-23T14:40:33;99665.63;;;30.67;38.48
54236;BME280;40151;43.606;1.472;2022-07-23T14:42:59;99660.22;;;30.67;38.47
54236;BME280;40151;43.606;1.472;2022-07-23T14:45:53;99651.16;;;30.68;38.46
54236;BME280;40151;43.606;1.472;2022-07-23T14:48:24;99659.97;;;30.70;38.36
54236;BME280;40151;43.606;1.472;2022-07-23T14:50:49;99649.19;;;30.70;38.35
54236;BME280;40151;43.606;1.472;2022-07-23T14:53:15;99657.09;;;30.72;38.39
54236;BME280;40151;43.606;1.472;2022-07-23T14:55:41;99651.56;;;30.73;38.46
54236;BME280;40151;43.606;1.472;2022-07-23T14:58:08;99644.50;;;30.72;38.43
54236;BME280;40151;43.606;1.472;2022-07-23T15:00:44;99639.94;;;30.73;38.38
54236;BME280;40151;43.606;1.472;2022-07-23T15:03:10;99650.56;;;30.74;38.24
54236;BME280;40151;43.606;1.472;2022-07-23T15:05:45;99639.78;;;30.74;38.10
54236;BME280;40151;43.606;1.472;2022-07-23T15:08:16;99646.03;;;30.75;38.28
54236;BME280;40151;43.606;1.472;2022-07-23T15:10:52;99645.03;;;30.76;38.16
54236;BME280;40151;43.606;1.472;2022-07-23T15:13:49;99646.56;;;30.78;38.35
54236;BME280;40151;43.606;1.472;2022-07-23T15:16:20;99642.03;;;30.79;38.27
54236;BME280;40151;43.606;1.472;2022-07-23T15:18:46;99632.09;;;30.79;38.18
54236;BME280;40151;43.606;1.472;2022-07-23T15:21:14;99631.28;;;30.79;38.07
54236;BME280;40151;43.606;1.472;2022-07-23T15:23:41;99634.66;;;30.81;38.00
54236;BME280;40151;43.606;1.472;2022-07-23T15:26:07;99630.09;;;30.81;38.04
54236;BME280;40151;43.606;1.472;2022-07-23T15:28:34;99632.78;;;30.81;38.35
54236;BME280;40151;43.606;1.472;2022-07-23T15:30:59;99635.31;;;30.83;38.26
54236;BME280;40151;43.606;1.472;2022-07-23T15:33:26;99629.94;;;30.83;38.19
54236;BME280;40151;43.606;1.472;2022-07-23T15:35:52;99628.94;;;30.84;38.23
54236;BME280;40151;43.606;1.472;2022-07-23T15:38:29;99627.09;;;30.85;38.20
54236;BME280;40151;43.606;1.472;2022-07-23T15:40:56;99632.34;;;30.86;38.29
54236;BME280;40151;43.606;1.472;2022-07-23T15:43:25;99626.09;;;30.86;38.18
54236;BME280;40151;43.606;1.472;2022-07-23T15:45:51;99624.09;;;30.88;38.45
54236;BME280;40151;43.606;1.472;2022-07-23T15:48:24;99618.72;;;30.88;37.96
54236;BME280;40151;43.606;1.472;2022-07-23T15:50:54;99624.09;;;30.88;38.10
54236;BME280;40151;43.606;1.472;2022-07-23T15:53:41;99617.72;;;30.89;38.32
54236;BME280;40151;43.606;1.472;2022-07-23T15:56:20;99614.84;;;30.90;38.29
54236;BME280;40151;43.606;1.472;2022-07-23T15:58:45;99626.47;;;30.91;38.21
54236;BME280;40151;43.606;1.472;2022-07-23T16:01:13;99623.78;;;30.91;38.08
54236;BME280;40151;43.606;1.472;2022-07-23T16:03:53;99620.06;;;30.92;38.33
54236;BME280;40151;43.606;1.472;2022-07-23T16:06:27;99617.38;;;30.92;38.10
54236;BME280;40151;43.606;1.472;2022-07-23T16:08:59;99619.06;;;30.93;38.15
54236;BME280;40151;43.606;1.472;2022-07-23T16:12:08;99614.53;;;30.93;38.40
54236;BME280;40151;43.606;1.472;2022-07-23T16:14:43;99617.22;;;30.93;38.46
54236;BME280;40151;43.606;1.472;2022-07-23T16:17:22;99612.72;;;30.94;38.40
54236;BME280;40151;43.606;1.472;2022-07-23T16:19:48;99610.00;;;30.94;38.25
54236;BME280;40151;43.606;1.472;2022-07-23T16:22:18;99619.78;;;30.95;38.10
54236;BME280;40151;43.606;1.472;2022-07-23T16:25:08;99614.41;;;30.95;38.30
54236;BME280;40151;43.606;1.472;2022-07-23T16:28:09;99614.41;;;30.95;38.15
54236;BME280;40151;43.606;1.472;2022-07-23T16:30:42;99609.84;;;30.95;38.21
54236;BME280;40151;43.606;1.472;2022-07-23T16:33:44;99612.38;;;30.97;38.21
54236;BME280;40151;43.606;1.472;2022-07-23T16:36:36;99611.56;;;30.97;38.46
54236;BME280;40151;43.606;1.472;2022-07-23T16:39:03;99607.00;;;30.97;38.21
54236;BME280;40151;43.606;1.472;2022-07-23T16:41:34;99602.47;;;30.98;38.11
54236;BME280;40151;43.606;1.472;2022-07-23T16:44:28;99607.00;;;30.97;38.21
54236;BME280;40151;43.606;1.472;2022-07-23T16:50:25;99596.22;;;30.97;38.38
54236;BME280;40151;43.606;1.472;2022-07-23T16:52:52;99597.06;;;30.98;38.25
54236;BME280;40151;43.606;1.472;2022-07-23T16:55:36;99602.28;;;30.99;38.43
54236;BME280;40151;43.606;1.472;2022-07-23T16:58:10;99597.91;;;30.98;38.57
54236;BME280;40151;43.606;1.472;2022-07-23T17:00:58;99597.91;;;30.98;37.99
54236;BME280;40151;43.606;1.472;2022-07-23T17:03:28;99596.22;;;30.97;38.25
54236;BME280;40151;43.606;1.472;2022-07-23T17:06:11;99589.81;;;30.98;38.43
54236;BME280;40151;43.606;1.472;2022-07-23T17:08:40;99595.19;;;30.98;38.23
54236;BME280;40151;43.606;1.472;2022-07-23T17:14:28;99589.66;;;31.00;38.30
54236;BME280;40151;43.606;1.472;2022-07-23T17:17:00;99590.69;;;30.99;37.96
54236;BME280;40151;43.606;1.472;2022-07-23T17:23:04;99592.50;;;30.98;38.38
54236;BME280;40151;43.606;1.472;2022-07-23T17:25:29;99597.91;;;30.98;38.37
54236;BME280;40151;43.606;1.472;2022-07-23T17:28:22;99590.81;;;30.97;38.15
54236;BME280;40151;43.606;1.472;2022-07-23T17:31:25;99597.06;;;30.98;38.02
54236;BME280;40151;43.606;1.472;2022-07-23T17:33:51;99593.50;;;30.97;38.06
54236;BME280;40151;43.606;1.472;2022-07-23T17:36:17;99582.88;;;30.95;37.96
54236;BME280;40151;43.606;1.472;2022-07-23T17:38:44;99587.44;;;30.95;37.89
54236;BME280;40151;43.606;1.472;2022-07-23T17:41:09;99594.53;;;30.96;37.91
54236;BME280;40151;43.606;1.472;2022-07-23T17:43:35;99592.84;;;30.95;38.00
54236;BME280;40151;43.606;1.472;2022-07-23T17:46:08;99587.44;;;30.95;37.95
54236;BME280;40151;43.606;1.472;2022-07-23T17:48:34;99598.22;;;30.95;37.89
54236;BME280;40151;43.606;1.472;2022-07-23T17:51:00;99589.44;;;30.93;37.53
54236;BME280;40151;43.606;1.472;2022-07-23T17:53:30;99601.06;;;30.93;37.72
54236;BME280;40151;43.606;1.472;2022-07-23T17:55:56;99594.00;;;30.92;37.65
54236;BME280;40151;43.606;1.472;2022-07-23T17:58:21;99593.13;;;30.92;37.63
54236;BME280;40151;43.606;1.472;2022-07-23T18:00:47;99598.53;;;30.92;37.68
54236;BME280;40151;43.606;1.472;2022-07-23T18:03:13;99602.22;;;30.91;37.32
54236;BME280;40151;43.606;1.472;2022-07-23T18:05:38;99603.22;;;30.90;37.06
54236;BME280;40151;43.606;1.472;2022-07-23T18:08:06;99603.22;;;30.90;37.29
54236;BME280;40151;43.606;1.472;2022-07-23T18:10:33;99609.63;;;30.89;37.39
54236;BME280;40151;43.606;1.472;2022-07-23T18:12:59;99604.25;;;30.89;37.35
54236;BME280;40151;43.606;1.472;2022-07-23T18:15:25;99610.63;;;30.88;37.13
54236;BME280;40151;43.606;1.472;2022-07-23T18:17:51;99617.84;;;30.87;37.28
54236;BME280;40151;43.606;1.472;2022-07-23T18:20:16;99606.22;;;30.87;37.25
54236;BME280;40151;43.606;1.472;2022-07-23T18:22:42;99611.63;;;30.87;37.14
54236;BME280;40151;43.606;1.472;2022-07-23T18:25:09;99608.25;;;30.85;37.09
54236;BME280;40151;43.606;1.472;2022-07-23T18:27:36;99618.88;;;30.86;37.16
54236;BME280;40151;43.606;1.472;2022-07-23T18:30:04;99610.94;;;30.85;36.90
54236;BME280;40151;43.606;1.472;2022-07-23T18:32:30;99617.31;;;30.84;36.80
54236;BME280;40151;43.606;1.472;2022-07-23T18:34:56;99617.31;;;30.84;36.48
54236;BME280;40151;43.606;1.472;2022-07-23T18:37:22;99621.84;;;30.83;36.68
54236;BME280;40151;43.606;1.472;2022-07-23T18:39:48;99617.47;;;30.82;36.70
54236;BME280;40151;43.606;1.472;2022-07-23T18:42:15;99623.88;;;30.81;36.74
54236;BME280;40151;43.606;1.472;2022-07-23T18:44:41;99617.63;;;30.80;36.71
54236;BME280;40151;43.606;1.472;2022-07-23T18:47:07;99614.94;;;30.80;36.57
54236;BME280;40151;43.606;1.472;2022-07-23T18:49:35;99619.63;;;30.78;36.35
54236;BME280;40151;43.606;1.472;2022-07-23T18:52:01;99614.25;;;30.78;36.33
54236;BME280;40151;43.606;1.472;2022-07-23T18:54:31;99618.78;;;30.78;36.44
54236;BME280;40151;43.606;1.472;2022-07-23T18:56:57;99621.47;;;30.78;36.22
54236;BME280;40151;43.606;1.472;2022-07-23T18:59:22;99615.41;;;30.76;36.14
54236;BME280;40151;43.606;1.472;2022-07-23T19:01:48;99614.53;;;30.75;36.35
54236;BME280;40151;43.606;1.472;2022-07-23T19:04:14;99615.56;;;30.74;36.24
54236;BME280;40151;43.606;1.472;2022-07-23T19:06:39;99612.84;;;30.74;36.19
54236;BME280;40151;43.606;1.472;2022-07-23T19:09:22;99618.25;;;30.74;36.32
54236;BME280;40151;43.606;1.472;2022-07-23T19:12:09;99615.69;;;30.73;36.02
54236;BME280;40151;43.606;1.472;2022-07-23T19:14:52;99621.09;;;30.73;36.39
54236;BME280;40151;43.606;1.472;2022-07-23T19:24:10;99612.47;;;30.69;36.09
54236;BME280;40151;43.606;1.472;2022-07-23T19:26:37;99623.25;;;30.69;36.17
54236;BME280;40151;43.606;1.472;2022-07-23T19:29:03;99618.84;;;30.68;36.14
54236;BME280;40151;43.606;1.472;2022-07-23T19:31:29;99620.69;;;30.67;36.03
54236;BME280;40151;43.606;1.472;2022-07-23T19:33:55;99618.00;;;30.67;36.17
54236;BME280;40151;43.606;1.472;2022-07-23T19:36:23;99626.09;;;30.67;36.14
54236;BME280;40151;43.606;1.472;2022-07-23T19:38:50;99622.81;;;30.64;36.30
54236;BME280;40151;43.606;1.472;2022-07-23T19:41:16;99625.50;;;30.64;36.12
54236;BME280;40151;43.606;1.472;2022-07-23T19:43:44;99628.22;;;30.64;36.29
54236;BME280;40151;43.606;1.472;2022-07-23T19:46:38;99631.91;;;30.63;36.44
54236;BME280;40151;43.606;1.472;2022-07-23T19:55:57;99643.00;;;30.60;36.57
54236;BME280;40151;43.606;1.472;2022-07-23T20:08:49;99657.75;;;30.55;37.02
54236;BME280;40151;43.606;1.472;2022-07-23T20:18:17;99665.16;;;30.53;37.03
54236;BME280;40151;43.606;1.472;2022-07-23T20:21:09;99672.50;;;30.51;37.03
54236;BME280;40151;43.606;1.472;2022-07-23T20:33:55;99680.91;;;30.48;37.15
54236;BME280;40151;43.606;1.472;2022-07-23T20:36:35;99682.88;;;30.46;37.12
54236;BME280;40151;43.606;1.472;2022-07-23T20:39:08;99690.97;;;30.46;37.12
54236;BME280;40151;43.606;1.472;2022-07-23T20:41:35;99692.81;;;30.46;37.07
54236;BME280;40151;43.606;1.472;2022-07-23T20:44:05;99693.84;;;30.45;37.23
54236;BME280;40151;43.606;1.472;2022-07-23T20:46:32;99692.13;;;30.44;37.28
54236;BME280;40151;43.606;1.472;2022-07-23T20:49:12;99685.91;;;30.43;37.26
54236;BME280;40151;43.606;1.472;2022-07-23T21:05:18;99691.88;;;30.37;37.22
54236;BME280;40151;43.606;1.472;2022-07-23T21:07:47;99689.19;;;30.37;37.25
54236;BME280;40151;43.606;1.472;2022-07-23T21:10:40;99688.50;;;30.35;36.99
54236;BME280;40151;43.606;1.472;2022-07-23T21:23:15;99693.31;;;30.31;37.15
54236;BME280;40151;43.606;1.472;2022-07-23T21:25:47;99696.19;;;30.30;37.18
54236;BME280;40151;43.606;1.472;2022-07-23T21:28:23;99691.78;;;30.28;37.48
54236;BME280;40151;43.606;1.472;2022-07-23T21:30:58;99695.47;;;30.27;37.06
54236;BME280;40151;43.606;1.472;2022-07-23T21:33:38;99696.47;;;30.26;37.52
54236;BME280;40151;43.606;1.472;2022-07-23T21:39:26;99690.41;;;30.24;37.31
54236;BME280;40151;43.606;1.472;2022-07-23T21:42:03;99687.69;;;30.24;37.36
54236;BME280;40151;43.606;1.472;2022-07-23T21:44:32;99688.72;;;30.23;37.22
54236;BME280;40151;43.606;1.472;2022-07-23T21:47:01;99686.97;;;30.22;37.44
54236;BME280;40151;43.606;1.472;2022-07-23T21:55:59;99690.00;;;30.19;37.32
54236;BME280;40151;43.606;1.472;2022-07-23T21:58:31;99684.06;;;30.16;37.35
54236;BME280;40151;43.606;1.472;2022-07-23T22:08:09;99690.59;;;30.13;37.18
54236;BME280;40151;43.606;1.472;2022-07-23T22:23:27;99684.91;;;30.06;37.76
54236;BME280;40151;43.606;1.472;2022-07-23T22:30:01;99692.16;;;30.06;37.76
54236;BME280;40151;43.606;1.472;2022-07-23T22:32:56;99689.75;;;30.02;37.77
54236;BME280;40151;43.606;1.472;2022-07-23T22:41:45;99697.13;;;30.00;37.78
54236;BME280;40151;43.606;1.472;2022-07-23T23:04:05;99693.84;;;29.69;39.08
54236;BME280;40151;43.606;1.472;2022-07-23T23:38:03;99677.19;;;29.16;41.10
